CYKL

Schefferville Airport

Schefferville, Quebec, Canada
METAR CYKL 210400Z AUTO 00000KT 9SM CLR 08/08 A3014 RMK SLP223
Observed Flight Rules
Jul-21 @ 04:00 UTC (23 minutes ago) Visual Flight Rules
Visibility Clouds
9 miles
  • Clear skies
Temperatures Readings
Current 8°C / 46°F
Dewpoint 8°C / 46°F
Humidity 100%
Altimeter 30.14" Hg
Pressure 1022.3 hPa
Elevation 521
METAR CYKL 210400Z AUTO 00000KT 9SM CLR 08/08 A3014 RMK SLP223
Observed Flight Rules
Jul-21 @ 04:00 UTC
(23 minutes ago)
VFR
Clouds
  • Clear skies
Temperature Dewpoint
8°C / 46°F 8°C / 46°F
Humidity Altimeter Pressure
100% 30.14" Hg 1022.3 hPa